Search for airport 
image banner adimage banner ad
image banner ad

EVJA - Jurmala Airport (Tukums)

Located in Smarde, Latvia

ICAO - , IATA -

Data provided by Airmate  

General information

Coordinates: N56°56'33" E23°13'26"
Elevation is 234 feet MSL.
Magnetic variation is 7° East
Rated:
View ratings: [VIEW]


View others Airports in Tukums District

Operational data

Open for public use
Current time UTC:
Current local time:
Weather at : EVRA - Riga ( 45 km )
METAR: EVRA 141350Z 02005KT 340V050 9999 SCT040 23/14 Q1015 NOSIG
TAF: TAF EVRA 141101Z 1412/1512 VRB02KT 9999 SCT040 TEMPO 1420/1423 2000 MIFG BR TEMPO 1423/1505 0500 FG PROB40 TEMPO 1500/1505 BKN001
View NOTAMs / SUP AIP / TFR affecting this airport [VIEW]
Communications frequencies: [VIEW]

Runways:

RWY identifierQFULength (ft)Width (ft)SurfaceLDA (ft)
13139°8209148ASPH
31319°4928148ASPH

Airport contact information

Address: Smarde Latvia

Satellite view of EVJA